createdAt,value
2023-03-01T00:04:57.614Z,-5.00
2023-03-01T00:10:01.111Z,-5.03
2023-03-01T00:15:05.916Z,-5.05
2023-03-01T00:20:12.050Z,-5.09
2023-03-01T00:25:15.813Z,-5.19
2023-03-01T00:30:21.115Z,-5.23
2023-03-01T00:35:24.828Z,-5.26
2023-03-01T00:40:29.567Z,-5.31
2023-03-01T00:45:34.215Z,-5.36
2023-03-01T00:50:37.792Z,-5.43
2023-03-01T00:55:41.190Z,-5.50
2023-03-01T01:00:44.685Z,-5.57
2023-03-01T01:05:48.287Z,-5.62
2023-03-01T01:10:51.804Z,-5.66
2023-03-01T01:15:55.184Z,-5.66
2023-03-01T01:21:03.609Z,-5.63
2023-03-01T01:26:09.243Z,-5.69
2023-03-01T01:31:12.948Z,-5.76
2023-03-01T01:36:16.954Z,-5.80
2023-03-01T01:41:21.614Z,-5.87
2023-03-01T01:46:31.343Z,-5.93
2023-03-01T01:51:39.896Z,-5.92
2023-03-01T01:56:48.238Z,-5.94
2023-03-01T02:01:52.269Z,-5.99
2023-03-01T02:06:59.131Z,-6.07
2023-03-01T02:12:04.067Z,-6.08
2023-03-01T02:17:07.684Z,-6.02
2023-03-01T02:22:21.482Z,-5.96
2023-03-01T02:27:37.666Z,-6.02
2023-03-01T02:32:42.973Z,-6.11
2023-03-01T02:37:47.479Z,-6.17
2023-03-01T02:42:54.334Z,-6.24
2023-03-01T02:47:58.573Z,-6.26
2023-03-01T02:53:14.736Z,-6.24
2023-03-01T02:58:18.424Z,-6.27
2023-03-01T03:03:22.633Z,-6.30
2023-03-01T03:08:26.220Z,-6.34
2023-03-01T03:13:30.350Z,-6.35
2023-03-01T03:18:33.797Z,-6.37
2023-03-01T03:23:37.620Z,-6.40
2023-03-01T03:28:41.622Z,-6.46
2023-03-01T03:33:45.065Z,-6.48
2023-03-01T03:38:49.206Z,-6.50
2023-03-01T03:43:52.680Z,-6.52
2023-03-01T03:48:56.369Z,-6.58
2023-03-01T03:53:59.802Z,-6.61
2023-03-01T03:59:03.321Z,-6.62
2023-03-01T04:04:08.191Z,-6.64
2023-03-01T04:09:11.627Z,-6.66
2023-03-01T04:14:15.042Z,-6.71
2023-03-01T04:19:18.633Z,-6.75
2023-03-01T04:24:23.291Z,-6.71
2023-03-01T04:29:26.781Z,-6.74
2023-03-01T04:34:30.513Z,-6.73
2023-03-01T04:39:33.984Z,-6.70
2023-03-01T04:44:37.446Z,-6.71
2023-03-01T04:49:41.132Z,-6.73
2023-03-01T04:54:44.603Z,-6.73
2023-03-01T04:59:48.207Z,-6.76
2023-03-01T05:04:51.671Z,-6.81
2023-03-01T05:09:55.193Z,-6.83
2023-03-01T05:14:59.124Z,-6.81
2023-03-01T05:20:08.285Z,-6.83
2023-03-01T05:25:14.547Z,-6.84
2023-03-01T05:30:19.039Z,-6.88
2023-03-01T05:35:23.158Z,-6.90
2023-03-01T05:40:26.763Z,-6.92
2023-03-01T05:45:30.244Z,-6.96
2023-03-01T05:50:36.578Z,-6.98
2023-03-01T05:55:40.297Z,-6.96
2023-03-01T06:00:45.279Z,-6.95
2023-03-01T06:05:48.736Z,-6.90
2023-03-01T06:10:52.261Z,-6.86
2023-03-01T06:15:55.616Z,-6.84
2023-03-01T06:20:59.277Z,-6.75
2023-03-01T06:26:07.856Z,-6.61
2023-03-01T06:31:11.317Z,-6.45
2023-03-01T06:36:14.806Z,-6.22
2023-03-01T06:41:18.344Z,-5.97
2023-03-01T06:46:22.016Z,-5.80
2023-03-01T06:51:26.575Z,-5.66
2023-03-01T06:56:30.495Z,-5.38
2023-03-01T07:01:34.147Z,-5.12
2023-03-01T07:06:37.578Z,-4.91
2023-03-01T07:11:41.238Z,-4.67
2023-03-01T07:16:44.618Z,-4.55
2023-03-01T07:21:48.074Z,-4.34
2023-03-01T07:26:53.995Z,-4.00
2023-03-01T07:31:57.539Z,-3.56
2023-03-01T07:37:00.999Z,-3.32
2023-03-01T07:42:04.680Z,-3.14
2023-03-01T07:47:08.367Z,-3.00
2023-03-01T07:52:12.634Z,-2.80
2023-03-01T07:57:16.185Z,-2.58
2023-03-01T08:02:19.645Z,-2.35
2023-03-01T08:07:23.104Z,-2.17
2023-03-01T08:12:28.071Z,-1.94
2023-03-01T08:17:31.650Z,-1.74
2023-03-01T08:22:35.120Z,-1.59
2023-03-01T08:27:39.252Z,-1.45
2023-03-01T08:32:42.699Z,-1.22
2023-03-01T08:37:46.260Z,-1.02
2023-03-01T08:42:49.685Z,-0.86
2023-03-01T08:47:54.352Z,-0.69
2023-03-01T08:52:58.014Z,-0.50
2023-03-01T08:58:01.422Z,-0.35
2023-03-01T09:03:05.268Z,-0.21
2023-03-01T09:08:09.260Z,-0.12
2023-03-01T09:13:13.262Z,0.03
2023-03-01T09:18:16.812Z,0.16
2023-03-01T09:23:20.296Z,0.40
2023-03-01T09:28:29.691Z,0.54
2023-03-01T09:33:34.251Z,0.62
2023-03-01T09:38:37.758Z,0.83
2023-03-01T09:43:47.419Z,0.92
2023-03-01T09:48:56.219Z,0.99
2023-03-01T09:54:02.173Z,1.11
2023-03-01T09:59:23.203Z,1.22
2023-03-01T10:04:40.355Z,1.37
2023-03-01T10:09:46.024Z,1.53
2023-03-01T10:14:56.610Z,1.61
2023-03-01T10:20:15.728Z,1.72
2023-03-01T10:25:31.725Z,1.92
2023-03-01T10:30:39.811Z,1.99
2023-03-01T10:35:43.397Z,2.07
2023-03-01T10:40:57.282Z,2.16
2023-03-01T10:46:00.829Z,2.31
2023-03-01T10:51:08.734Z,2.47
2023-03-01T10:56:14.641Z,2.71
2023-03-01T11:01:29.427Z,2.84
2023-03-01T11:06:34.312Z,3.02
2023-03-01T11:11:38.070Z,3.13
2023-03-01T11:16:44.296Z,3.21
2023-03-01T11:22:04.000Z,3.31
2023-03-01T11:27:17.500Z,3.45
2023-03-01T11:32:25.281Z,3.58
2023-03-01T11:37:37.729Z,3.70
2023-03-01T11:42:54.142Z,3.90
2023-03-01T11:48:11.778Z,4.00
2023-03-01T11:53:35.925Z,4.12
2023-03-01T11:59:03.538Z,4.21
2023-03-01T12:04:37.310Z,4.51
2023-03-01T12:09:55.543Z,4.73
2023-03-01T12:15:22.406Z,5.20
2023-03-01T12:20:32.807Z,6.73
2023-03-01T12:25:40.047Z,8.07
2023-03-01T12:31:05.452Z,9.12
2023-03-01T12:36:27.837Z,10.09
2023-03-01T12:41:49.188Z,11.07
2023-03-01T12:47:02.396Z,11.86
2023-03-01T12:52:14.941Z,12.56
2023-03-01T12:57:27.536Z,13.21
2023-03-01T13:02:36.071Z,13.87
2023-03-01T13:07:49.246Z,14.07
2023-03-01T13:13:02.835Z,14.38
2023-03-01T13:18:33.339Z,14.91
2023-03-01T13:23:39.828Z,14.97
2023-03-01T13:28:57.125Z,14.73
2023-03-01T13:34:00.895Z,15.07
2023-03-01T13:39:05.832Z,15.17
2023-03-01T13:44:21.107Z,15.46
2023-03-01T13:49:33.386Z,15.41
2023-03-01T13:54:44.627Z,15.51
2023-03-01T13:59:49.355Z,16.05
2023-03-01T14:04:59.147Z,16.48
2023-03-01T14:10:05.699Z,16.66
2023-03-01T14:15:19.770Z,17.24
2023-03-01T14:20:25.881Z,17.37
2023-03-01T14:25:32.147Z,17.23
2023-03-01T14:30:39.683Z,17.05
2023-03-01T14:35:43.212Z,17.05
2023-03-01T14:40:46.690Z,16.85
2023-03-01T14:45:51.825Z,16.92
2023-03-01T14:50:55.414Z,17.08
2023-03-01T14:56:03.039Z,17.29
2023-03-01T15:01:08.766Z,17.20
2023-03-01T15:06:15.789Z,17.44
2023-03-01T15:11:24.650Z,17.18
2023-03-01T15:16:30.431Z,17.17
2023-03-01T15:21:36.419Z,16.70
2023-03-01T15:26:42.943Z,16.40
2023-03-01T15:31:56.818Z,15.87
2023-03-01T15:37:05.870Z,15.52
2023-03-01T15:42:12.524Z,14.90
2023-03-01T15:47:40.804Z,14.67
2023-03-01T15:52:44.643Z,14.47
2023-03-01T15:57:49.743Z,13.86
2023-03-01T16:02:53.313Z,13.67
2023-03-01T16:07:56.754Z,13.15
2023-03-01T16:13:00.502Z,12.41
2023-03-01T16:18:05.643Z,11.35
2023-03-01T16:23:11.779Z,10.27
2023-03-01T16:28:15.300Z,9.39
2023-03-01T16:33:27.176Z,8.65
2023-03-01T16:38:37.280Z,7.88
2023-03-01T16:43:41.417Z,7.15
2023-03-01T16:48:45.125Z,6.48
2023-03-01T16:53:48.805Z,5.87
2023-03-01T16:58:52.209Z,5.34
2023-03-01T17:03:55.939Z,4.99
2023-03-01T17:08:59.753Z,4.66
2023-03-01T17:14:03.558Z,4.31
2023-03-01T17:19:07.152Z,3.98
2023-03-01T17:24:11.786Z,3.71
2023-03-01T17:29:18.361Z,3.47
2023-03-01T17:34:22.275Z,3.21
2023-03-01T17:39:28.630Z,2.90
2023-03-01T17:44:33.904Z,2.61
2023-03-01T17:49:37.295Z,2.45
2023-03-01T17:54:40.669Z,2.28
2023-03-01T17:59:44.028Z,2.04
2023-03-01T18:04:47.883Z,1.72
2023-03-01T18:09:51.562Z,1.42
2023-03-01T18:14:55.318Z,1.14
2023-03-01T18:19:59.153Z,0.90
2023-03-01T18:25:02.883Z,0.78
2023-03-01T18:30:09.140Z,0.66
2023-03-01T18:35:12.777Z,0.47
2023-03-01T18:40:16.715Z,0.21
2023-03-01T18:45:20.247Z,-0.02
2023-03-01T18:50:23.714Z,-0.20
2023-03-01T18:55:27.143Z,-0.37
2023-03-01T19:00:30.652Z,-0.51
2023-03-01T19:05:34.059Z,-0.66
2023-03-01T19:10:37.532Z,-0.79
2023-03-01T19:15:40.920Z,-0.94
2023-03-01T19:20:46.603Z,-1.07
2023-03-01T19:25:50.222Z,-1.20
2023-03-01T19:31:00.359Z,-1.30
2023-03-01T19:36:05.323Z,-1.41
2023-03-01T19:41:11.018Z,-1.53
2023-03-01T19:46:15.741Z,-1.66
2023-03-01T19:51:19.240Z,-1.76
2023-03-01T19:56:22.817Z,-1.84
2023-03-01T20:01:29.140Z,-1.90
2023-03-01T20:06:32.887Z,-1.98
2023-03-01T20:11:36.575Z,-2.06
2023-03-01T20:16:40.380Z,-2.10
2023-03-01T20:21:43.861Z,-2.21
2023-03-01T20:26:47.278Z,-2.28
2023-03-01T20:31:50.885Z,-2.36
2023-03-01T20:36:54.323Z,-2.44
2023-03-01T20:41:57.717Z,-2.53
2023-03-01T20:47:01.214Z,-2.63
2023-03-01T20:52:04.884Z,-2.75
2023-03-01T20:57:08.451Z,-2.87
2023-03-01T21:02:12.079Z,-2.95
2023-03-01T21:07:15.930Z,-2.99
2023-03-01T21:12:19.413Z,-3.03
2023-03-01T21:17:22.833Z,-3.09
2023-03-01T21:22:26.277Z,-3.17
2023-03-01T21:27:29.765Z,-3.23
2023-03-01T21:32:33.386Z,-3.27
2023-03-01T21:37:37.238Z,-3.33
2023-03-01T21:42:43.643Z,-3.38
2023-03-01T21:47:47.151Z,-3.44
2023-03-01T21:52:50.853Z,-3.52
2023-03-01T21:57:54.220Z,-3.58
2023-03-01T22:02:57.667Z,-3.64
2023-03-01T22:08:01.750Z,-3.71
2023-03-01T22:13:05.159Z,-3.66
2023-03-01T22:18:08.779Z,-3.66
2023-03-01T22:23:12.113Z,-3.69
2023-03-01T22:28:15.676Z,-3.77
2023-03-01T22:33:19.180Z,-3.86
2023-03-01T22:38:23.013Z,-3.96
2023-03-01T22:43:27.202Z,-4.04
2023-03-01T22:48:30.598Z,-4.09
2023-03-01T22:53:34.072Z,-4.16
2023-03-01T22:58:37.586Z,-4.20
2023-03-01T23:03:41.445Z,-4.21
2023-03-01T23:08:48.661Z,-4.23
2023-03-01T23:13:53.296Z,-4.29
2023-03-01T23:18:58.402Z,-4.36
2023-03-01T23:24:01.953Z,-4.40
2023-03-01T23:29:05.649Z,-4.46
2023-03-01T23:34:09.094Z,-4.48
2023-03-01T23:39:14.046Z,-4.54
2023-03-01T23:44:20.015Z,-4.60
2023-03-01T23:49:24.440Z,-4.65
2023-03-01T23:54:28.704Z,-4.66
2023-03-01T23:59:32.390Z,-4.71
